• location
  • image
mod_vvisit_countermod_vvisit_countermod_vvisit_countermod_vvisit_countermod_vvisit_countermod_vvisit_countermod_vvisit_counter
mod_vvisit_counterToday127
mod_vvisit_counterYesterday311
mod_vvisit_counterThis week1334
mod_vvisit_counterLast week4842
mod_vvisit_counterThis month12902
mod_vvisit_counterLast month22275
mod_vvisit_counterAll days1021134

We have: 36 guests, 1 bots online
Your IP: 54.145.17.37
 , 
Today: Nov 21, 2018
Airport / Information for passengers / Rules

Rules

This section will provide the following information: the procedures and regulations before departure, baggage allowance, the Customs and State Border Guard Service procedures, how to plan your child’s or pet’s trip.


Today

Wednesday, 21 November 2018

Aviation Weather Forecast

[source: ADDS]
METAR
EYSA 210320Z 04004KT 010V080 9999 OVC006 M03/M03 Q1030 R14L/09//95 YLO1 NOSIG =
TAF EYSA 210205Z 2103/2112 VRB05KT 5000 BR OVC005 TEMPO 2103/2106 3000 BECMG 2106/2107 9000 BKN040
TAF
TAF EYSA 210205Z 2103/2112 VRB05KT 5000 BR OVC005 TEMPO 2103/2106 3000 BECMG 2106/2107 9000 BKN040 =
SR / SS: 06:12 / 14:15 UTC (EYSA 2018-11-21)

Search

Who's Online

We have 36 guests online

tic logo en